Main page
METAR-TAF:

METAR-TAF

Airports :

Fillmore County Airport

Preston, Minnesota, United States

latitude: 43-40-36N, longitude: 092-10-47W, elevation: 1276 ft

Current weather observation

The report was made 14 minutes ago, at 23:36 UTC
Wind 14 mph from the South/Southwest
Temperature 84°F
Humidity 48%
Pressure 29.82 in. Hg
Visibility: 10 miles
Clear sky

METAR: KFKA 012336Z AUTO 20012KT 10SM CLR 29/17 A2982 RMK AO2 T02860171

Time: 18:50 (23:50 UTC)


TAF: missing

Weather observations and forecasts of more than 4000 airports (METAR and TAF reports).

The available stations are represented by yellow and red dots on the map.

Hover mouse over dot to see the name of the station.

Then click to see weather observations and forecasts.

To change the map : click on the green buttons with a black cross to zoom in, on the green button with a dash to zoom out, or on the green arrows for adjacent maps.


METAR-TAF: